sensor_id;sensor_type;location;lat;lon;timestamp;pressure;altitude;pressure_sealevel;temperature;humidity
42727;BME280;28372;56.832;60.658;2023-03-20T00:01:17;98753.16;;;-0.30;21.26
42727;BME280;28372;56.832;60.658;2023-03-20T00:03:45;98743.56;;;-0.31;21.44
42727;BME280;28372;56.832;60.658;2023-03-20T00:06:23;98745.13;;;-0.20;21.20
42727;BME280;28372;56.832;60.658;2023-03-20T00:08:51;98746.13;;;-0.15;21.01
42727;BME280;28372;56.832;60.658;2023-03-20T00:13:53;98733.63;;;-0.10;20.78
42727;BME280;28372;56.832;60.658;2023-03-20T00:16:20;98719.69;;;-0.02;20.62
42727;BME280;28372;56.832;60.658;2023-03-20T00:18:49;98730.63;;;-0.03;20.65
42727;BME280;28372;56.832;60.658;2023-03-20T00:21:17;98728.44;;;0.04;20.46
42727;BME280;28372;56.832;60.658;2023-03-20T00:23:44;98717.75;;;0.09;20.84
42727;BME280;28372;56.832;60.658;2023-03-20T00:26:14;98717.78;;;0.04;20.39
42727;BME280;28372;56.832;60.658;2023-03-20T00:28:44;98719.47;;;-0.05;20.71
42727;BME280;28372;56.832;60.658;2023-03-20T00:31:19;98714.91;;;0.01;20.57
42727;BME280;28372;56.832;60.658;2023-03-20T00:33:48;98714.44;;;-0.07;20.63
42727;BME280;28372;56.832;60.658;2023-03-20T00:36:16;98717.03;;;-0.02;20.24
42727;BME280;28372;56.832;60.658;2023-03-20T00:38:43;98717.88;;;-0.06;21.03
42727;BME280;28372;56.832;60.658;2023-03-20T00:41:19;98712.56;;;-0.06;21.20
42727;BME280;28372;56.832;60.658;2023-03-20T00:43:48;98717.38;;;-0.08;20.90
42727;BME280;28372;56.832;60.658;2023-03-20T00:46:16;98716.06;;;-0.11;21.18
42727;BME280;28372;56.832;60.658;2023-03-20T00:48:44;98703.81;;;-0.07;20.73
42727;BME280;28372;56.832;60.658;2023-03-20T00:51:12;98701.63;;;0.01;21.05
42727;BME280;28372;56.832;60.658;2023-03-20T00:53:40;98704.28;;;0.01;20.49
42727;BME280;28372;56.832;60.658;2023-03-20T00:56:14;98698.72;;;-0.03;20.70
42727;BME280;28372;56.832;60.658;2023-03-20T00:58:51;98697.63;;;0.03;21.67
42727;BME280;28372;56.832;60.658;2023-03-20T01:01:19;98693.53;;;0.11;20.90
42727;BME280;28372;56.832;60.658;2023-03-20T01:03:46;98700.91;;;0.19;20.43
42727;BME280;28372;56.832;60.658;2023-03-20T01:06:14;98695.00;;;0.27;20.90
42727;BME280;28372;56.832;60.658;2023-03-20T01:08:41;98690.13;;;0.34;21.11
42727;BME280;28372;56.832;60.658;2023-03-20T01:11:08;98689.03;;;0.41;20.93
42727;BME280;28372;56.832;60.658;2023-03-20T01:13:37;98686.28;;;0.46;21.01
42727;BME280;28372;56.832;60.658;2023-03-20T01:16:13;98684.16;;;0.48;20.52
42727;BME280;28372;56.832;60.658;2023-03-20T01:18:44;98684.94;;;0.48;21.52
42727;BME280;28372;56.832;60.658;2023-03-20T01:21:11;98678.25;;;0.51;21.46
42727;BME280;28372;56.832;60.658;2023-03-20T01:23:38;98673.88;;;0.60;21.00
42727;BME280;28372;56.832;60.658;2023-03-20T01:26:48;98668.50;;;0.65;21.02
42727;BME280;28372;56.832;60.658;2023-03-20T01:28:56;98674.28;;;0.73;21.14
42727;BME280;28372;56.832;60.658;2023-03-20T01:31:23;98675.81;;;0.79;20.61
42727;BME280;28372;56.832;60.658;2023-03-20T01:33:51;98664.31;;;0.83;21.05
42727;BME280;28372;56.832;60.658;2023-03-20T01:36:19;98665.81;;;0.90;20.29
42727;BME280;28372;56.832;60.658;2023-03-20T01:38:56;98663.38;;;0.93;21.01
42727;BME280;28372;56.832;60.658;2023-03-20T01:41:25;98659.34;;;0.96;20.42
42727;BME280;28372;56.832;60.658;2023-03-20T01:43:53;98660.28;;;1.05;20.99
42727;BME280;28372;56.832;60.658;2023-03-20T01:46:25;98653.09;;;1.06;21.04
42727;BME280;28372;56.832;60.658;2023-03-20T01:49:06;98653.59;;;1.08;20.62
42727;BME280;28372;56.832;60.658;2023-03-20T01:51:34;98656.97;;;1.13;20.53
42727;BME280;28372;56.832;60.658;2023-03-20T01:54:17;98650.09;;;1.12;21.10
42727;BME280;28372;56.832;60.658;2023-03-20T01:57:17;98643.66;;;1.13;20.39
42727;BME280;28372;56.832;60.658;2023-03-20T01:59:48;98648.22;;;1.13;20.66
42727;BME280;28372;56.832;60.658;2023-03-20T02:02:23;98642.66;;;1.09;20.80
42727;BME280;28372;56.832;60.658;2023-03-20T02:04:53;98641.53;;;1.15;21.27
42727;BME280;28372;56.832;60.658;2023-03-20T02:07:22;98637.75;;;1.16;20.99
42727;BME280;28372;56.832;60.658;2023-03-20T02:10:32;98637.91;;;1.25;21.38
42727;BME280;28372;56.832;60.658;2023-03-20T02:13:13;98635.75;;;1.27;21.30
42727;BME280;28372;56.832;60.658;2023-03-20T02:18:39;98620.75;;;1.31;21.74
42727;BME280;28372;56.832;60.658;2023-03-20T02:26:28;98620.59;;;1.42;21.24
42727;BME280;28372;56.832;60.658;2023-03-20T02:31:37;98621.41;;;1.42;21.02
42727;BME280;28372;56.832;60.658;2023-03-20T02:34:15;98608.38;;;1.41;21.02
42727;BME280;28372;56.832;60.658;2023-03-20T02:47:14;98607.31;;;1.56;21.11
42727;BME280;28372;56.832;60.658;2023-03-20T03:05:51;98586.16;;;1.78;20.87
42727;BME280;28372;56.832;60.658;2023-03-20T03:08:15;98584.38;;;1.87;21.02
42727;BME280;28372;56.832;60.658;2023-03-20T03:10:46;98586.47;;;1.91;20.71
42727;BME280;28372;56.832;60.658;2023-03-20T03:13:17;98595.16;;;1.96;21.07
42727;BME280;28372;56.832;60.658;2023-03-20T03:15:46;98591.81;;;2.04;20.89
42727;BME280;28372;56.832;60.658;2023-03-20T03:18:20;98573.44;;;2.03;21.15
42727;BME280;28372;56.832;60.658;2023-03-20T03:20:50;98565.72;;;2.01;20.80
42727;BME280;28372;56.832;60.658;2023-03-20T03:23:31;98566.13;;;2.09;21.02
42727;BME280;28372;56.832;60.658;2023-03-20T03:26:00;98565.13;;;2.04;20.52
42727;BME280;28372;56.832;60.658;2023-03-20T03:28:34;98571.59;;;2.03;21.08
42727;BME280;28372;56.832;60.658;2023-03-20T03:31:05;98570.69;;;2.08;20.76
42727;BME280;28372;56.832;60.658;2023-03-20T03:33:35;98570.59;;;2.13;20.89
42727;BME280;28372;56.832;60.658;2023-03-20T03:46:07;98563.75;;;2.35;21.02
42727;BME280;28372;56.832;60.658;2023-03-20T03:48:41;98557.53;;;2.39;20.74
42727;BME280;28372;56.832;60.658;2023-03-20T03:51:11;98559.13;;;2.40;21.33
42727;BME280;28372;56.832;60.658;2023-03-20T03:54:36;98562.78;;;2.45;21.30
42727;BME280;28372;56.832;60.658;2023-03-20T03:56:51;98556.72;;;2.53;21.16
42727;BME280;28372;56.832;60.658;2023-03-20T03:59:26;98555.81;;;2.57;21.26
42727;BME280;28372;56.832;60.658;2023-03-20T04:01:55;98556.59;;;2.58;20.98
42727;BME280;28372;56.832;60.658;2023-03-20T04:04:24;98551.47;;;2.62;21.26
42727;BME280;28372;56.832;60.658;2023-03-20T04:06:53;98565.81;;;2.66;21.13
42727;BME280;28372;56.832;60.658;2023-03-20T04:09:20;98557.38;;;2.72;20.88
42727;BME280;28372;56.832;60.658;2023-03-20T04:11:51;98553.19;;;2.80;21.10
42727;BME280;28372;56.832;60.658;2023-03-20T04:14:19;98555.00;;;2.85;20.62
42727;BME280;28372;56.832;60.658;2023-03-20T04:16:46;98553.88;;;2.86;20.80
42727;BME280;28372;56.832;60.658;2023-03-20T04:19:13;98550.03;;;2.92;20.97
42727;BME280;28372;56.832;60.658;2023-03-20T04:21:43;98548.44;;;2.91;20.80
42727;BME280;28372;56.832;60.658;2023-03-20T04:24:11;98548.31;;;2.96;21.22
42727;BME280;28372;56.832;60.658;2023-03-20T04:26:39;98551.38;;;3.03;20.76
42727;BME280;28372;56.832;60.658;2023-03-20T04:29:06;98554.72;;;3.09;20.99
42727;BME280;28372;56.832;60.658;2023-03-20T04:32:02;98550.66;;;3.12;20.67
42727;BME280;28372;56.832;60.658;2023-03-20T04:34:58;98544.19;;;3.13;20.82
42727;BME280;28372;56.832;60.658;2023-03-20T04:37:44;98552.69;;;3.15;21.30
42727;BME280;28372;56.832;60.658;2023-03-20T04:40:12;98541.28;;;3.23;21.18
42727;BME280;28372;56.832;60.658;2023-03-20T04:42:41;98541.97;;;3.29;21.05
42727;BME280;28372;56.832;60.658;2023-03-20T04:45:09;98539.63;;;3.36;20.74
42727;BME280;28372;56.832;60.658;2023-03-20T04:47:38;98541.69;;;3.39;21.14
42727;BME280;28372;56.832;60.658;2023-03-20T04:50:06;98538.59;;;3.46;20.52
42727;BME280;28372;56.832;60.658;2023-03-20T04:52:34;98538.28;;;3.47;20.71
42727;BME280;28372;56.832;60.658;2023-03-20T04:55:02;98536.59;;;3.51;20.68
42727;BME280;28372;56.832;60.658;2023-03-20T04:57:29;98535.97;;;3.54;21.14
42727;BME280;28372;56.832;60.658;2023-03-20T04:59:57;98535.97;;;3.54;21.38
42727;BME280;28372;56.832;60.658;2023-03-20T05:02:26;98527.50;;;3.61;20.89
42727;BME280;28372;56.832;60.658;2023-03-20T05:04:53;98531.47;;;3.64;20.82
42727;BME280;28372;56.832;60.658;2023-03-20T05:07:20;98528.34;;;3.70;21.07
42727;BME280;28372;56.832;60.658;2023-03-20T05:10:14;98526.63;;;3.74;20.83
42727;BME280;28372;56.832;60.658;2023-03-20T05:12:49;98524.59;;;3.80;21.22
42727;BME280;28372;56.832;60.658;2023-03-20T05:15:35;98532.69;;;3.89;21.12
42727;BME280;28372;56.832;60.658;2023-03-20T05:18:32;98524.34;;;3.90;21.16
42727;BME280;28372;56.832;60.658;2023-03-20T05:21:14;98519.97;;;3.94;20.90
42727;BME280;28372;56.832;60.658;2023-03-20T05:24:02;98517.44;;;3.98;20.88
42727;BME280;28372;56.832;60.658;2023-03-20T05:26:55;98527.38;;;3.98;21.06
42727;BME280;28372;56.832;60.658;2023-03-20T05:29:45;98512.56;;;4.00;21.57
42727;BME280;28372;56.832;60.658;2023-03-20T05:32:48;98520.16;;;4.07;21.20
42727;BME280;28372;56.832;60.658;2023-03-20T05:35:25;98514.66;;;4.12;21.10
42727;BME280;28372;56.832;60.658;2023-03-20T05:38:02;98507.44;;;4.21;21.21
42727;BME280;28372;56.832;60.658;2023-03-20T05:40:42;98502.22;;;4.25;21.57
42727;BME280;28372;56.832;60.658;2023-03-20T05:43:29;98500.50;;;4.29;21.96
42727;BME280;28372;56.832;60.658;2023-03-20T05:46:30;98499.28;;;4.26;22.07
42727;BME280;28372;56.832;60.658;2023-03-20T05:49:12;98499.59;;;4.34;21.64
42727;BME280;28372;56.832;60.658;2023-03-20T05:52:06;98500.38;;;4.43;22.76
42727;BME280;28372;56.832;60.658;2023-03-20T05:54:39;98495.84;;;4.52;21.79
42727;BME280;28372;56.832;60.658;2023-03-20T05:57:39;98495.53;;;4.62;21.59
42727;BME280;28372;56.832;60.658;2023-03-20T06:00:26;98503.91;;;4.78;21.48
42727;BME280;28372;56.832;60.658;2023-03-20T06:03:12;98496.94;;;4.77;22.44
42727;BME280;28372;56.832;60.658;2023-03-20T06:06:03;98505.44;;;4.79;23.04
42727;BME280;28372;56.832;60.658;2023-03-20T06:08:30;98502.47;;;4.81;22.45
42727;BME280;28372;56.832;60.658;2023-03-20T06:10:58;98497.44;;;4.88;21.86
42727;BME280;28372;56.832;60.658;2023-03-20T06:13:27;98499.16;;;4.93;23.81
42727;BME280;28372;56.832;60.658;2023-03-20T06:15:54;98502.94;;;5.01;22.80
42727;BME280;28372;56.832;60.658;2023-03-20T06:18:22;98491.59;;;5.04;24.46
42727;BME280;28372;56.832;60.658;2023-03-20T06:20:53;98490.47;;;5.13;22.65
42727;BME280;28372;56.832;60.658;2023-03-20T06:23:21;98491.72;;;5.25;21.97
42727;BME280;28372;56.832;60.658;2023-03-20T06:25:49;98490.91;;;5.33;22.21
42727;BME280;28372;56.832;60.658;2023-03-20T06:28:19;98486.63;;;5.41;21.78
42727;BME280;28372;56.832;60.658;2023-03-20T06:30:50;98489.16;;;5.46;24.09
42727;BME280;28372;56.832;60.658;2023-03-20T06:33:19;98485.16;;;5.52;22.92
42727;BME280;28372;56.832;60.658;2023-03-20T06:35:58;98484.69;;;5.59;23.02
42727;BME280;28372;56.832;60.658;2023-03-20T06:38:28;98473.25;;;5.71;22.97
42727;BME280;28372;56.832;60.658;2023-03-20T06:40:57;98472.72;;;5.86;22.05
42727;BME280;28372;56.832;60.658;2023-03-20T06:43:24;98480.59;;;6.00;22.08
42727;BME280;28372;56.832;60.658;2023-03-20T06:45:52;98472.28;;;6.14;22.21
42727;BME280;28372;56.832;60.658;2023-03-20T06:48:22;98475.53;;;6.28;21.81
42727;BME280;28372;56.832;60.658;2023-03-20T06:50:50;98476.41;;;6.41;22.11
42727;BME280;28372;56.832;60.658;2023-03-20T06:53:22;98465.25;;;6.51;21.99
42727;BME280;28372;56.832;60.658;2023-03-20T06:55:56;98455.84;;;6.66;22.09
42727;BME280;28372;56.832;60.658;2023-03-20T06:58:24;98458.25;;;6.80;21.91
42727;BME280;28372;56.832;60.658;2023-03-20T07:00:51;98462.22;;;6.95;22.29
42727;BME280;28372;56.832;60.658;2023-03-20T07:03:21;98440.75;;;7.08;23.82
42727;BME280;28372;56.832;60.658;2023-03-20T07:05:49;98446.59;;;7.22;23.81
42727;BME280;28372;56.832;60.658;2023-03-20T07:08:18;98446.75;;;7.38;22.75
42727;BME280;28372;56.832;60.658;2023-03-20T07:10:47;98440.16;;;7.48;23.03
42727;BME280;28372;56.832;60.658;2023-03-20T07:13:15;98435.56;;;7.61;21.91
42727;BME280;28372;56.832;60.658;2023-03-20T07:15:42;98432.34;;;7.67;22.34
42727;BME280;28372;56.832;60.658;2023-03-20T07:18:31;98438.28;;;7.73;23.02
42727;BME280;28372;56.832;60.658;2023-03-20T07:21:00;98437.59;;;7.76;23.40
42727;BME280;28372;56.832;60.658;2023-03-20T07:23:29;98439.28;;;7.68;24.94
42727;BME280;28372;56.832;60.658;2023-03-20T07:25:57;98437.81;;;7.71;24.57
42727;BME280;28372;56.832;60.658;2023-03-20T07:28:25;98432.34;;;7.67;25.06
42727;BME280;28372;56.832;60.658;2023-03-20T07:31:06;98430.84;;;7.70;25.44
42727;BME280;28372;56.832;60.658;2023-03-20T07:33:33;98428.84;;;7.79;24.51
42727;BME280;28372;56.832;60.658;2023-03-20T07:36:00;98429.88;;;7.87;24.74
42727;BME280;28372;56.832;60.658;2023-03-20T07:38:28;98433.91;;;7.93;24.16
42727;BME280;28372;56.832;60.658;2023-03-20T07:41:06;98434.44;;;7.99;24.83
42727;BME280;28372;56.832;60.658;2023-03-20T07:43:40;98429.63;;;8.04;24.50
42727;BME280;28372;56.832;60.658;2023-03-20T07:46:16;98427.03;;;8.08;25.52
42727;BME280;28372;56.832;60.658;2023-03-20T07:48:43;98426.09;;;8.16;24.79
42727;BME280;28372;56.832;60.658;2023-03-20T07:51:11;98426.44;;;8.27;24.00
42727;BME280;28372;56.832;60.658;2023-03-20T07:53:38;98420.47;;;8.34;25.65
42727;BME280;28372;56.832;60.658;2023-03-20T07:56:05;98417.97;;;8.41;25.14
42727;BME280;28372;56.832;60.658;2023-03-20T07:58:33;98419.78;;;8.49;25.51
42727;BME280;28372;56.832;60.658;2023-03-20T08:01:01;98413.13;;;8.59;24.06
42727;BME280;28372;56.832;60.658;2023-03-20T08:03:29;98414.91;;;8.67;23.98
42727;BME280;28372;56.832;60.658;2023-03-20T08:05:57;98421.25;;;8.75;24.70
42727;BME280;28372;56.832;60.658;2023-03-20T08:08:25;98414.41;;;8.78;24.86
42727;BME280;28372;56.832;60.658;2023-03-20T08:10:52;98415.28;;;8.82;25.12
42727;BME280;28372;56.832;60.658;2023-03-20T08:13:19;98400.75;;;8.86;24.81
42727;BME280;28372;56.832;60.658;2023-03-20T08:15:46;98401.63;;;8.90;24.93
42727;BME280;28372;56.832;60.658;2023-03-20T08:18:14;98397.03;;;8.91;24.48
42727;BME280;28372;56.832;60.658;2023-03-20T08:20:41;98398.81;;;8.99;23.73
42727;BME280;28372;56.832;60.658;2023-03-20T08:23:08;98392.00;;;9.05;23.59
42727;BME280;28372;56.832;60.658;2023-03-20T08:25:36;98388.09;;;9.03;24.18
42727;BME280;28372;56.832;60.658;2023-03-20T08:28:03;98391.59;;;9.03;24.30
42727;BME280;28372;56.832;60.658;2023-03-20T08:30:31;98390.63;;;9.12;23.35
42727;BME280;28372;56.832;60.658;2023-03-20T08:32:58;98382.28;;;9.17;23.07
42727;BME280;28372;56.832;60.658;2023-03-20T08:35:26;98382.44;;;9.24;22.88
42727;BME280;28372;56.832;60.658;2023-03-20T08:38:11;98371.75;;;9.28;23.31
42727;BME280;28372;56.832;60.658;2023-03-20T08:40:40;98373.31;;;9.29;23.16
42727;BME280;28372;56.832;60.658;2023-03-20T08:43:07;98368.34;;;9.15;23.78
42727;BME280;28372;56.832;60.658;2023-03-20T08:45:35;98369.78;;;8.96;24.39
42727;BME280;28372;56.832;60.658;2023-03-20T08:48:03;98367.78;;;8.93;24.17
42727;BME280;28372;56.832;60.658;2023-03-20T08:50:31;98376.34;;;8.95;23.47
42727;BME280;28372;56.832;60.658;2023-03-20T08:52:58;98365.25;;;8.84;24.19
42727;BME280;28372;56.832;60.658;2023-03-20T08:55:27;98353.88;;;8.91;23.28
42727;BME280;28372;56.832;60.658;2023-03-20T08:57:54;98346.91;;;8.90;23.77
42727;BME280;28372;56.832;60.658;2023-03-20T09:00:23;98356.06;;;8.85;24.46
42727;BME280;28372;56.832;60.658;2023-03-20T09:02:50;98371.44;;;8.85;24.12
42727;BME280;28372;56.832;60.658;2023-03-20T09:05:18;98365.25;;;8.84;23.72
42727;BME280;28372;56.832;60.658;2023-03-20T09:07:45;98354.81;;;8.83;24.64
42727;BME280;28372;56.832;60.658;2023-03-20T09:10:12;98341.75;;;8.85;23.68
42727;BME280;28372;56.832;60.658;2023-03-20T09:12:40;98340.53;;;8.82;23.86
42727;BME280;28372;56.832;60.658;2023-03-20T09:15:07;98348.97;;;8.81;24.49
42727;BME280;28372;56.832;60.658;2023-03-20T09:17:35;98350.38;;;8.74;25.10
42727;BME280;28372;56.832;60.658;2023-03-20T09:20:02;98353.41;;;8.73;24.80
42727;BME280;28372;56.832;60.658;2023-03-20T09:22:30;98350.78;;;8.77;23.78
42727;BME280;28372;56.832;60.658;2023-03-20T09:24:58;98348.03;;;8.73;25.00
42727;BME280;28372;56.832;60.658;2023-03-20T09:27:25;98353.94;;;8.79;23.77
42727;BME280;28372;56.832;60.658;2023-03-20T09:29:53;98355.75;;;8.74;24.30
42727;BME280;28372;56.832;60.658;2023-03-20T09:32:20;98354.00;;;8.66;25.70
42727;BME280;28372;56.832;60.658;2023-03-20T09:34:47;98347.44;;;8.80;24.14
42727;BME280;28372;56.832;60.658;2023-03-20T09:37:15;98341.22;;;8.79;23.90
42727;BME280;28372;56.832;60.658;2023-03-20T09:39:42;98344.19;;;8.74;25.72
42727;BME280;28372;56.832;60.658;2023-03-20T09:42:17;98335.91;;;8.67;25.64
42727;BME280;28372;56.832;60.658;2023-03-20T09:45:10;98334.94;;;8.59;25.95
42727;BME280;28372;56.832;60.658;2023-03-20T09:47:43;98342.16;;;8.55;25.10
42727;BME280;28372;56.832;60.658;2023-03-20T09:52:55;98331.31;;;8.39;26.16
42727;BME280;28372;56.832;60.658;2023-03-20T09:55:36;98322.69;;;8.33;26.66
42727;BME280;28372;56.832;60.658;2023-03-20T10:00:36;98329.00;;;8.25;26.42
42727;BME280;28372;56.832;60.658;2023-03-20T10:03:05;98319.53;;;8.31;26.02
42727;BME280;28372;56.832;60.658;2023-03-20T10:05:42;98317.88;;;8.27;26.30
42727;BME280;28372;56.832;60.658;2023-03-20T10:08:11;98319.44;;;8.28;26.62
42727;BME280;28372;56.832;60.658;2023-03-20T10:13:47;98317.16;;;8.30;26.47
42727;BME280;28372;56.832;60.658;2023-03-20T10:21:43;98321.13;;;8.20;26.31
42727;BME280;28372;56.832;60.658;2023-03-20T10:24:14;98311.97;;;8.37;24.74
42727;BME280;28372;56.832;60.658;2023-03-20T10:26:46;98310.75;;;8.34;25.61
42727;BME280;28372;56.832;60.658;2023-03-20T10:32:21;98307.44;;;8.25;26.34
42727;BME280;28372;56.832;60.658;2023-03-20T10:34:55;98322.44;;;8.26;25.55
42727;BME280;28372;56.832;60.658;2023-03-20T10:40:23;98302.66;;;8.34;25.83
42727;BME280;28372;56.832;60.658;2023-03-20T10:42:53;98301.47;;;8.32;24.77
42727;BME280;28372;56.832;60.658;2023-03-20T10:47:59;98317.72;;;8.35;24.45
42727;BME280;28372;56.832;60.658;2023-03-20T10:50:31;98314.59;;;8.33;24.46
42727;BME280;28372;56.832;60.658;2023-03-20T10:52:59;98310.47;;;8.23;26.32
42727;BME280;28372;56.832;60.658;2023-03-20T10:55:34;98320.47;;;8.11;26.52
42727;BME280;28372;56.832;60.658;2023-03-20T11:00:37;98311.53;;;8.06;26.62
42727;BME280;28372;56.832;60.658;2023-03-20T11:03:04;98305.59;;;8.01;26.96
42727;BME280;28372;56.832;60.658;2023-03-20T11:05:33;98309.78;;;7.98;26.73
42727;BME280;28372;56.832;60.658;2023-03-20T11:08:04;98299.41;;;8.00;26.80
42727;BME280;28372;56.832;60.658;2023-03-20T11:10:34;98296.72;;;8.00;27.00
42727;BME280;28372;56.832;60.658;2023-03-20T11:13:24;98304.66;;;8.09;25.89
42727;BME280;28372;56.832;60.658;2023-03-20T11:15:50;98301.31;;;8.12;26.87
42727;BME280;28372;56.832;60.658;2023-03-20T11:18:18;98291.72;;;8.15;25.73
42727;BME280;28372;56.832;60.658;2023-03-20T11:20:55;98296.00;;;8.16;26.54
42727;BME280;28372;56.832;60.658;2023-03-20T11:23:24;98294.44;;;8.15;26.96
42727;BME280;28372;56.832;60.658;2023-03-20T11:28:36;98290.97;;;8.14;26.67
42727;BME280;28372;56.832;60.658;2023-03-20T11:33:38;98290.84;;;8.11;27.33
42727;BME280;28372;56.832;60.658;2023-03-20T11:36:11;98288.16;;;8.11;26.72
42727;BME280;28372;56.832;60.658;2023-03-20T11:38:42;98278.53;;;8.10;27.52
42727;BME280;28372;56.832;60.658;2023-03-20T11:41:21;98280.00;;;8.07;27.59
42727;BME280;28372;56.832;60.658;2023-03-20T11:43:49;98283.09;;;8.09;27.39
42727;BME280;28372;56.832;60.658;2023-03-20T11:46:17;98272.00;;;8.11;26.48
42727;BME280;28372;56.832;60.658;2023-03-20T11:48:45;98267.28;;;8.07;27.74
42727;BME280;28372;56.832;60.658;2023-03-20T11:51:17;98267.09;;;8.00;28.07
42727;BME280;28372;56.832;60.658;2023-03-20T11:58:54;98261.72;;;8.00;27.83
42727;BME280;28372;56.832;60.658;2023-03-20T12:01:23;98262.25;;;8.06;26.86
42727;BME280;28372;56.832;60.658;2023-03-20T12:03:51;98261.13;;;8.07;27.71
42727;BME280;28372;56.832;60.658;2023-03-20T12:06:25;98262.84;;;7.99;27.25
42727;BME280;28372;56.832;60.658;2023-03-20T12:08:58;98257.09;;;8.01;27.05
42727;BME280;28372;56.832;60.658;2023-03-20T12:11:44;98264.41;;;8.00;27.23
42727;BME280;28372;56.832;60.658;2023-03-20T12:16:51;98261.38;;;8.02;27.66
42727;BME280;28372;56.832;60.658;2023-03-20T12:19:20;98250.84;;;7.97;27.81
42727;BME280;28372;56.832;60.658;2023-03-20T12:21:51;98246.94;;;7.94;27.59
42727;BME280;28372;56.832;60.658;2023-03-20T12:27:14;98241.97;;;7.96;27.41
42727;BME280;28372;56.832;60.658;2023-03-20T12:32:15;98230.78;;;7.94;27.49
42727;BME280;28372;56.832;60.658;2023-03-20T12:34:45;98232.47;;;7.86;27.17
42727;BME280;28372;56.832;60.658;2023-03-20T12:37:13;98224.03;;;7.88;27.22
42727;BME280;28372;56.832;60.658;2023-03-20T12:44:47;98221.63;;;7.83;27.71
42727;BME280;28372;56.832;60.658;2023-03-20T12:50:06;98223.97;;;7.84;26.56
42727;BME280;28372;56.832;60.658;2023-03-20T13:05:35;98203.56;;;7.71;27.08
42727;BME280;28372;56.832;60.658;2023-03-20T13:08:31;98200.88;;;7.71;26.79
42727;BME280;28372;56.832;60.658;2023-03-20T13:11:12;98201.69;;;7.71;26.38
42727;BME280;28372;56.832;60.658;2023-03-20T13:13:47;98196.97;;;7.68;26.54
42727;BME280;28372;56.832;60.658;2023-03-20T13:16:25;98201.16;;;7.66;26.70
42727;BME280;28372;56.832;60.658;2023-03-20T13:21:41;98196.56;;;7.54;28.05
42727;BME280;28372;56.832;60.658;2023-03-20T13:24:20;98192.28;;;7.53;27.40
42727;BME280;28372;56.832;60.658;2023-03-20T13:27:04;98193.22;;;7.45;28.16
42727;BME280;28372;56.832;60.658;2023-03-20T13:29:38;98197.81;;;7.44;26.91
42727;BME280;28372;56.832;60.658;2023-03-20T13:37:24;98194.81;;;7.33;27.27
42727;BME280;28372;56.832;60.658;2023-03-20T13:42:36;98195.97;;;7.32;26.17
42727;BME280;28372;56.832;60.658;2023-03-20T13:45:27;98195.41;;;7.27;27.76
42727;BME280;28372;56.832;60.658;2023-03-20T13:47:56;98196.19;;;7.15;28.98
42727;BME280;28372;56.832;60.658;2023-03-20T13:53:27;98190.16;;;7.06;28.90
42727;BME280;28372;56.832;60.658;2023-03-20T13:58:32;98186.59;;;7.01;29.13
42727;BME280;28372;56.832;60.658;2023-03-20T14:03:32;98201.16;;;6.88;29.93
42727;BME280;28372;56.832;60.658;2023-03-20T14:06:49;98199.69;;;6.78;29.39
42727;BME280;28372;56.832;60.658;2023-03-20T14:09:37;98192.75;;;6.77;29.36
42727;BME280;28372;56.832;60.658;2023-03-20T14:12:10;98189.28;;;6.77;27.93
42727;BME280;28372;56.832;60.658;2023-03-20T14:14:39;98193.75;;;6.73;30.24
42727;BME280;28372;56.832;60.658;2023-03-20T14:19:36;98203.50;;;6.65;30.44
42727;BME280;28372;56.832;60.658;2023-03-20T14:22:04;98203.38;;;6.61;30.15
42727;BME280;28372;56.832;60.658;2023-03-20T14:24:34;98201.38;;;6.58;30.35
42727;BME280;28372;56.832;60.658;2023-03-20T14:27:02;98211.56;;;6.53;30.93
42727;BME280;28372;56.832;60.658;2023-03-20T14:29:33;98215.56;;;6.46;30.86
42727;BME280;28372;56.832;60.658;2023-03-20T14:32:02;98213.19;;;6.45;29.05
42727;BME280;28372;56.832;60.658;2023-03-20T14:34:43;98218.47;;;6.41;29.84
42727;BME280;28372;56.832;60.658;2023-03-20T14:42:34;98218.34;;;6.38;29.25
42727;BME280;28372;56.832;60.658;2023-03-20T14:50:17;98224.69;;;6.21;31.48
42727;BME280;28372;56.832;60.658;2023-03-20T14:57:48;98257.53;;;6.05;29.63
42727;BME280;28372;56.832;60.658;2023-03-20T15:00:26;98252.34;;;6.00;31.00
42727;BME280;28372;56.832;60.658;2023-03-20T15:03:17;98257.44;;;5.93;32.32
42727;BME280;28372;56.832;60.658;2023-03-20T15:05:43;98257.97;;;5.86;31.99
42727;BME280;28372;56.832;60.658;2023-03-20T15:08:24;98257.38;;;5.80;33.19
42727;BME280;28372;56.832;60.658;2023-03-20T15:10:57;98257.19;;;5.64;34.01
42727;BME280;28372;56.832;60.658;2023-03-20T15:13:25;98262.22;;;5.66;33.68
42727;BME280;28372;56.832;60.658;2023-03-20T15:15:55;98254.19;;;5.66;33.34
42727;BME280;28372;56.832;60.658;2023-03-20T15:18:24;98248.66;;;5.62;34.14
42727;BME280;28372;56.832;60.658;2023-03-20T15:20:54;98248.88;;;5.57;31.95
42727;BME280;28372;56.832;60.658;2023-03-20T15:23:25;98250.31;;;5.55;33.07
42727;BME280;28372;56.832;60.658;2023-03-20T15:25:53;98249.06;;;5.52;33.99
42727;BME280;28372;56.832;60.658;2023-03-20T15:28:21;98251.63;;;5.48;33.51
42727;BME280;28372;56.832;60.658;2023-03-20T15:30:51;98256.53;;;5.46;33.82
42727;BME280;28372;56.832;60.658;2023-03-20T15:33:44;98246.78;;;5.42;34.17
42727;BME280;28372;56.832;60.658;2023-03-20T15:36:15;98251.44;;;5.24;35.50
42727;BME280;28372;56.832;60.658;2023-03-20T15:38:43;98255.19;;;5.31;32.36
42727;BME280;28372;56.832;60.658;2023-03-20T15:41:24;98245.91;;;5.29;34.42
42727;BME280;28372;56.832;60.658;2023-03-20T15:43:52;98246.09;;;5.24;34.87
42727;BME280;28372;56.832;60.658;2023-03-20T15:46:24;98242.94;;;5.22;34.44
42727;BME280;28372;56.832;60.658;2023-03-20T15:48:52;98237.91;;;5.20;34.78
42727;BME280;28372;56.832;60.658;2023-03-20T15:51:19;98227.81;;;5.17;33.36
42727;BME280;28372;56.832;60.658;2023-03-20T15:53:48;98236.97;;;5.16;34.59
42727;BME280;28372;56.832;60.658;2023-03-20T15:56:16;98235.28;;;5.11;35.43
42727;BME280;28372;56.832;60.658;2023-03-20T15:58:46;98240.19;;;5.09;33.29